This is the latest recevied weather packets stored in our database for station/object OE9FWV. If no packets are shown the sender has not sent any weather packets the latest 10 day(s).
| Time | Temp. | Humidity | Pressure | Rain* | Wind** | Luminosity | Snow |
|---|---|---|---|---|---|---|---|
| 1777716907 | 22.22° C | 47% | 1020.9 hPa | 0 mm | - | - | - |
| 1777715696 | 22.78° C | 48% | 1021.2 hPa | 0 mm | - | - | - |
| 1777715096 | 22.78° C | 47% | 1021.3 hPa | 0 mm | - | - | - |
| 1777714496 | 22.78° C | 47% | 1021.4 hPa | 0 mm | - | - | - |
| 1777713886 | 22.22° C | 48% | 1021.5 hPa | 0 mm | - | - | - |
| 1777713283 | 22.22° C | 48% | 1021.5 hPa | 0 mm | - | - | - |
| 1777712683 | 21.67° C | 51% | 1021.7 hPa | 0 mm | - | - | - |
| 1777711471 | 20.56° C | 49% | 1021.8 hPa | 0 mm | - | - | - |
| 1777710870 | 20° C | 50% | 1021.9 hPa | 0 mm | - | - | - |
| 1777710269 | 20° C | 50% | 1022 hPa | 0 mm | - | - | - |
| 1777709666 | 19.44° C | 51% | 1022 hPa | 0 mm | - | - | - |
| 1777709063 | 18.89° C | 51% | 1022.1 hPa | 0 mm | - | - | - |
| 1777707858 | 18.33° C | 54% | 1022.3 hPa | 0 mm | - | - | - |
| 1777707254 | 17.78° C | 56% | 1022.4 hPa | 0 mm | - | - | - |
| 1777706046 | 16.67° C | 58% | 1022.4 hPa | 0 mm | - | - | - |
| 1777703023 | 13.33° C | 69% | 1022.9 hPa | 0 mm | - | - | - |
| 1777702419 | 12.78° C | 70% | 1022.8 hPa | 0 mm | - | - | - |
| 1777701817 | 12.22° C | 72% | 1022.9 hPa | 0 mm | - | - | - |
| 1777701215 | 11.67° C | 74% | 1022.9 hPa | 0 mm | - | - | - |
| 1777700612 | 11.11° C | 75% | 1023 hPa | 0 mm | - | - | - |
| 1777697597 | 9.44° C | 77% | 1022.6 hPa | 0 mm | - | - | - |
| 1777696995 | 9.44° C | 77% | 1022.7 hPa | 0 mm | - | - | - |
| 1777696390 | 10° C | 76% | 1022.7 hPa | 0 mm | - | - | - |
| 1777695785 | 10° C | 76% | 1022.6 hPa | 0 mm | - | - | - |
| 1777694582 | 10° C | 76% | 1022.7 hPa | 0 mm | - | - | - |
* Rain latest hour (hover to see other rain measurements)
** Current wind speed in m/s (hover to see current wind gust speed)